Nearby METAR Reports

 

EGNX - East Midlands, United Kingdom
Distance from station: W 5mi, 8km
Updated: 02/08/2021 07:50
Clear
Clear
 Wind from SE
Wind: SE 5 mph , 7 km/h
Temperature: 13°C
Dew Point: 10°C
Humidity: 82%
Barometer: 1015 hPa
Summary: Clear
Visibility: greater than 7 miles , 10 km
2021/08/02 06:50 EGNX 020650Z 13004KT CAVOK 13/10 Q1015
EGBB - Birmingham Airpo, United Kingdom
Distance from station: SW 34mi, 55km
Updated: 02/08/2021 07:50
Clear
Clear
 Wind from SE
Wind: SE 6 mph , 9 km/h
Temperature: 14°C
Dew Point: 11°C
Humidity: 82%
Barometer: 1015 hPa
Summary: Clear
Visibility: greater than 7 miles , 10 km
2021/08/02 06:50 EGBB 020650Z 13005KT 100V160 CAVOK 14/11 Q1015
 
EGXP - Scampton RAF, United Kingdom
Distance from station: NE 41mi, 66km
Updated: 02/08/2021 07:50
Clear
Clear
 Wind from NE
Wind: NE 2 mph , 4 km/h
Temperature: 15°C
Dew Point: 10°C
Humidity: 72%
Barometer: 1015 hPa
Summary: Clear
Visibility: greater than 7 miles , 10 km
2021/08/02 06:50 EGXP 020650Z 05002KT CAVOK 15/10 Q1015
EGCN - Doncaster Sheffi, United Kingdom
Distance from station: N 46mi, 74km
Updated: 02/08/2021 07:50
Clear
Clear
 Wind from varies
Wind: varies 2 mph , 4 km/h
Temperature: 13°C
Dew Point: 11°C
Humidity: 88%
Barometer: 1016 hPa
Summary: Clear
Visibility: greater than 7 miles , 10 km
2021/08/02 06:50 EGCN 020650Z VRB02KT CAVOK 13/11 Q1016
 
EGPB - Sumburgh, United Kingdom
Distance from station: N 491mi, 791km
Updated: 02/08/2021 07:50
Nearby showers, Mostly cloudy
Nearby showers, Mostly cloudy
 Wind from NNW
Wind: NNW 8 mph , 13 km/h
Temperature: 10°C
Wind Chill: 8°C
Dew Point: 8°C
Humidity: 88%
Barometer: 1013 hPa
Summary: Nearby Showers
Clouds: Mostly cloudy
Visibility: 6 miles , 10 km
Cloud details: Few Clouds 305 m
Mostly cloudy 549 m
Mostly cloudy 975 m
2021/08/02 06:50 EGPB 020650Z 33007KT 9999 VCSH FEW010CB BKN018 BKN032 10/08 Q1013 TEMPO BKN012
EGPO - Stornoway, United Kingdom
Distance from station: NW 561mi, 903km
Updated: 02/08/2021 07:50
Mostly cloudy
Mostly cloudy
 Wind from NNW
Wind: NNW 5 mph , 7 km/h
Temperature: 11°C
Dew Point: 6°C
Humidity: 72%
Barometer: 1014 hPa
Clouds: Mostly cloudy
Visibility: 6 miles , 10 km
Cloud details: Mostly cloudy 914 m
2021/08/02 06:50 EGPO 020650Z 34004KT 9999 BKN030 11/06 Q1014